createdAt,value
2017-04-26T00:00:21.874Z,0
2017-04-26T00:01:21.572Z,0
2017-04-26T00:02:21.918Z,0
2017-04-26T00:03:21.931Z,0
2017-04-26T00:04:21.947Z,0
2017-04-26T00:05:21.961Z,0
2017-04-26T00:06:21.972Z,0
2017-04-26T00:07:21.984Z,0
2017-04-26T00:08:21.688Z,0
2017-04-26T00:09:22.096Z,0
2017-04-26T00:10:22.036Z,0
2017-04-26T00:11:22.052Z,0
2017-04-26T00:12:22.067Z,0
2017-04-26T00:13:21.445Z,0
2017-04-26T00:14:22.118Z,0
2017-04-26T00:15:22.117Z,0
2017-04-26T00:16:21.821Z,0
2017-04-26T00:17:22.142Z,0
2017-04-26T00:18:22.172Z,0
2017-04-26T00:19:22.184Z,0
2017-04-26T00:20:22.200Z,0
2017-04-26T00:21:22.216Z,0
2017-04-26T00:22:21.915Z,0
2017-04-26T00:23:22.253Z,0
2017-04-26T00:24:22.288Z,0
2017-04-26T00:25:22.279Z,0
2017-04-26T00:26:21.972Z,0
2017-04-26T00:27:21.991Z,0
2017-04-26T00:28:22.322Z,0
2017-04-26T00:29:22.340Z,0
2017-04-26T00:30:22.358Z,0
2017-04-26T00:31:22.366Z,0
2017-04-26T00:32:22.389Z,0
2017-04-26T00:33:22.086Z,0
2017-04-26T00:34:22.105Z,0
2017-04-26T00:35:22.134Z,0
2017-04-26T00:36:21.827Z,0
2017-04-26T00:37:22.472Z,0
2017-04-26T00:38:22.482Z,0
2017-04-26T00:39:22.189Z,0
2017-04-26T00:40:22.518Z,0
2017-04-26T00:41:22.527Z,0
2017-04-26T00:42:22.546Z,0
2017-04-26T00:43:22.570Z,0
2017-04-26T00:44:22.586Z,0
2017-04-26T00:45:22.588Z,0
2017-04-26T00:46:22.619Z,0
2017-04-26T00:47:22.635Z,0
2017-04-26T00:48:22.714Z,0
2017-04-26T00:49:22.662Z,0
2017-04-26T00:50:22.676Z,0
2017-04-26T00:51:22.683Z,0
2017-04-26T00:52:22.702Z,0
2017-04-26T00:53:22.731Z,0
2017-04-26T00:54:22.745Z,0
2017-04-26T00:55:22.431Z,0
2017-04-26T00:56:22.769Z,0
2017-04-26T00:57:22.783Z,0
2017-04-26T00:58:22.803Z,0
2017-04-26T00:59:22.818Z,0
2017-04-26T01:00:22.827Z,0
2017-04-26T01:01:22.524Z,0
2017-04-26T01:02:22.969Z,0
2017-04-26T01:03:22.237Z,0
2017-04-26T01:04:22.992Z,0
2017-04-26T01:05:22.993Z,0
2017-04-26T01:06:23.001Z,0
2017-04-26T01:07:23.038Z,0
2017-04-26T01:08:22.650Z,0
2017-04-26T01:09:22.974Z,0
2017-04-26T01:10:22.784Z,0
2017-04-26T01:11:23.104Z,0
2017-04-26T01:12:23.133Z,0
2017-04-26T01:13:23.117Z,0
2017-04-26T01:14:23.081Z,0
2017-04-26T01:15:22.874Z,0
2017-04-26T01:16:23.205Z,0
2017-04-26T01:17:23.217Z,0
2017-04-26T01:18:23.200Z,0
2017-04-26T01:19:22.909Z,0
2017-04-26T01:20:22.911Z,0
2017-04-26T01:21:23.472Z,0
2017-04-26T01:22:23.482Z,0
2017-04-26T01:23:23.509Z,0
2017-04-26T01:24:23.518Z,0
2017-04-26T01:25:23.527Z,0
2017-04-26T01:26:23.536Z,0
2017-04-26T01:27:23.020Z,0
2017-04-26T01:28:23.454Z,0
2017-04-26T01:29:23.080Z,0
2017-04-26T01:30:23.075Z,0
2017-04-26T01:31:22.763Z,0
2017-04-26T01:32:23.510Z,0
2017-04-26T01:33:23.657Z,0
2017-04-26T01:34:23.241Z,0
2017-04-26T01:35:23.555Z,0
2017-04-26T01:36:23.564Z,0
2017-04-26T01:37:23.573Z,0
2017-04-26T01:38:23.521Z,0
2017-04-26T01:39:23.526Z,0
2017-04-26T01:40:23.638Z,0
2017-04-26T01:41:23.648Z,0
2017-04-26T01:42:23.548Z,0
2017-04-26T01:43:23.556Z,0
2017-04-26T01:44:23.255Z,0
2017-04-26T01:45:23.703Z,0
2017-04-26T01:46:22.980Z,0
2017-04-26T01:47:23.671Z,0
2017-04-26T01:48:23.349Z,0
2017-04-26T01:49:23.727Z,0
2017-04-26T01:50:23.695Z,0
2017-04-26T01:51:23.703Z,0
2017-04-26T01:52:23.412Z,0
2017-04-26T01:53:23.022Z,0
2017-04-26T01:54:23.720Z,0
2017-04-26T01:55:23.729Z,0
2017-04-26T01:56:23.711Z,0
2017-04-26T01:57:23.496Z,0
2017-04-26T01:58:23.507Z,0
2017-04-26T01:59:23.764Z,0
2017-04-26T02:00:23.768Z,0
2017-04-26T02:01:23.781Z,0
2017-04-26T02:02:23.801Z,0
2017-04-26T02:03:23.818Z,0
2017-04-26T02:04:23.835Z,0
2017-04-26T02:05:23.844Z,0
2017-04-26T02:06:23.566Z,0
2017-04-26T02:07:23.565Z,0
2017-04-26T02:08:23.894Z,0
2017-04-26T02:09:23.626Z,0
2017-04-26T02:10:23.917Z,0
2017-04-26T02:11:23.936Z,0
2017-04-26T02:12:23.948Z,0
2017-04-26T02:13:23.971Z,0
2017-04-26T02:14:23.985Z,0
2017-04-26T02:15:23.990Z,0
2017-04-26T02:16:23.702Z,0
2017-04-26T02:17:24.245Z,0
2017-04-26T02:18:24.050Z,0
2017-04-26T02:19:23.741Z,0
2017-04-26T02:20:23.479Z,0
2017-04-26T02:21:24.088Z,0
2017-04-26T02:22:23.496Z,0
2017-04-26T02:23:23.809Z,0
2017-04-26T02:24:23.811Z,0
2017-04-26T02:25:24.146Z,0
2017-04-26T02:26:24.163Z,0
2017-04-26T02:27:24.177Z,0
2017-04-26T02:28:24.194Z,0
2017-04-26T02:29:23.900Z,0
2017-04-26T02:30:23.906Z,0
2017-04-26T02:31:23.932Z,0
2017-04-26T02:32:23.936Z,0
2017-04-26T02:33:23.951Z,0
2017-04-26T02:34:24.289Z,0
2017-04-26T02:35:23.978Z,0
2017-04-26T02:36:23.995Z,0
2017-04-26T02:37:24.329Z,0
2017-04-26T02:38:24.356Z,0
2017-04-26T02:39:24.370Z,0
2017-04-26T02:40:24.378Z,0
2017-04-26T02:41:24.390Z,0
2017-04-26T02:42:24.091Z,0
2017-04-26T02:43:24.354Z,0
2017-04-26T02:44:24.447Z,0
2017-04-26T02:45:24.445Z,0
2017-04-26T02:46:24.469Z,0
2017-04-26T02:47:24.481Z,0
2017-04-26T02:48:24.175Z,0
2017-04-26T02:49:24.521Z,0
2017-04-26T02:50:24.531Z,0
2017-04-26T02:51:24.552Z,0
2017-04-26T02:52:24.554Z,0
2017-04-26T02:53:24.575Z,0
2017-04-26T02:54:24.600Z,0
2017-04-26T02:55:24.607Z,0
2017-04-26T02:56:24.618Z,0
2017-04-26T02:57:24.641Z,0
2017-04-26T02:58:24.652Z,0
2017-04-26T02:59:24.756Z,0
2017-04-26T03:00:24.359Z,0
2017-04-26T03:01:24.685Z,0
2017-04-26T03:02:24.400Z,0
2017-04-26T03:03:24.751Z,0
2017-04-26T03:04:24.793Z,0
2017-04-26T03:05:24.753Z,0
2017-04-26T03:06:24.763Z,0
2017-04-26T03:07:24.782Z,0
2017-04-26T03:08:24.795Z,0
2017-04-26T03:09:24.812Z,0
2017-04-26T03:10:24.832Z,0
2017-04-26T03:11:24.841Z,0
2017-04-26T03:12:24.882Z,0
2017-04-26T03:13:24.601Z,0
2017-04-26T03:14:24.893Z,0
2017-04-26T03:15:24.899Z,0
2017-04-26T03:16:24.593Z,0
2017-04-26T03:17:24.924Z,0
2017-04-26T03:18:24.942Z,0
2017-04-26T03:19:24.637Z,0
2017-04-26T03:20:24.966Z,0
2017-04-26T03:21:24.669Z,0
2017-04-26T03:22:25.002Z,0
2017-04-26T03:23:25.016Z,0
2017-04-26T03:24:25.085Z,0
2017-04-26T03:25:25.048Z,0
2017-04-26T03:26:25.067Z,0
2017-04-26T03:27:25.096Z,0
2017-04-26T03:28:25.095Z,0
2017-04-26T03:29:24.799Z,0
2017-04-26T03:30:25.125Z,0
2017-04-26T03:31:25.143Z,0
2017-04-26T03:32:24.833Z,0
2017-04-26T03:33:25.295Z,0
2017-04-26T03:34:24.549Z,0
2017-04-26T03:35:24.881Z,0
2017-04-26T03:36:25.310Z,0
2017-04-26T03:37:25.239Z,0
2017-04-26T03:38:25.330Z,0
2017-04-26T03:39:24.936Z,0
2017-04-26T03:40:25.367Z,0
2017-04-26T03:41:25.375Z,0
2017-04-26T03:42:24.673Z,0
2017-04-26T03:43:25.392Z,0
2017-04-26T03:44:25.333Z,0
2017-04-26T03:45:25.471Z,0
2017-04-26T03:46:25.478Z,0
2017-04-26T03:47:25.486Z,0
2017-04-26T03:48:25.494Z,0
2017-04-26T03:49:25.496Z,0
2017-04-26T03:50:25.099Z,0
2017-04-26T03:51:25.541Z,0
2017-04-26T03:52:25.450Z,0
2017-04-26T03:53:25.591Z,0
2017-04-26T03:54:25.598Z,0
2017-04-26T03:55:25.596Z,0
2017-04-26T03:56:25.286Z,0
2017-04-26T03:57:25.614Z,0
2017-04-26T03:58:25.633Z,0
2017-04-26T03:59:25.645Z,0
2017-04-26T04:00:25.578Z,0
2017-04-26T04:01:25.744Z,0
2017-04-26T04:02:25.427Z,0
2017-04-26T04:03:25.752Z,0
2017-04-26T04:04:25.763Z,0
2017-04-26T04:05:25.793Z,0
2017-04-26T04:06:25.797Z,0
2017-04-26T04:07:25.806Z,0
2017-04-26T04:08:25.805Z,0
2017-04-26T04:09:25.068Z,0
2017-04-26T04:10:25.871Z,0
2017-04-26T04:11:25.438Z,0
2017-04-26T04:12:25.872Z,0
2017-04-26T04:13:25.508Z,0
2017-04-26T04:14:25.886Z,0
2017-04-26T04:15:25.794Z,0
2017-04-26T04:16:25.489Z,0
2017-04-26T04:17:25.819Z,0
2017-04-26T04:18:25.849Z,0
2017-04-26T04:19:25.854Z,0
2017-04-26T04:20:25.880Z,0
2017-04-26T04:21:25.904Z,0
2017-04-26T04:22:25.931Z,0
2017-04-26T04:23:25.915Z,0
2017-04-26T04:24:25.289Z,0
2017-04-26T04:25:25.971Z,0
2017-04-26T04:26:25.954Z,0
2017-04-26T04:27:25.968Z,0
2017-04-26T04:28:25.992Z,0
2017-04-26T04:29:25.998Z,0
2017-04-26T04:30:25.700Z,0
2017-04-26T04:31:26.034Z,0
2017-04-26T04:32:26.049Z,0
2017-04-26T04:33:26.063Z,0
2017-04-26T04:34:25.761Z,0
2017-04-26T04:35:26.085Z,0
2017-04-26T04:36:25.812Z,0
2017-04-26T04:37:26.125Z,0
2017-04-26T04:38:26.137Z,0
2017-04-26T04:39:26.175Z,0
2017-04-26T04:40:26.170Z,0
2017-04-26T04:41:25.869Z,0
2017-04-26T04:42:26.198Z,0
2017-04-26T04:43:25.905Z,0
2017-04-26T04:44:26.429Z,0
2017-04-26T04:45:25.596Z,0
2017-04-26T04:46:26.363Z,0
2017-04-26T04:47:26.373Z,0
2017-04-26T04:48:26.382Z,0
2017-04-26T04:49:26.384Z,0
2017-04-26T04:50:26.388Z,5
2017-04-26T04:51:26.397Z,5
2017-04-26T04:52:26.408Z,5
2017-04-26T04:53:26.415Z,5
2017-04-26T04:54:26.374Z,5
2017-04-26T04:55:26.514Z,5
2017-04-26T04:56:26.524Z,5
2017-04-26T04:57:26.102Z,5
2017-04-26T04:58:26.437Z,5
2017-04-26T04:59:26.137Z,5
2017-04-26T05:00:26.201Z,5
2017-04-26T05:01:25.961Z,5
2017-04-26T05:02:26.605Z,5
2017-04-26T05:03:26.508Z,5
2017-04-26T05:04:26.659Z,5
2017-04-26T05:05:26.533Z,5
2017-04-26T05:06:26.557Z,5
2017-04-26T05:07:26.252Z,5
2017-04-26T05:08:26.582Z,5
2017-04-26T05:09:26.595Z,5
2017-04-26T05:10:26.613Z,5
2017-04-26T05:11:26.803Z,5
2017-04-26T05:12:26.463Z,5
2017-04-26T05:13:26.781Z,5
2017-04-26T05:14:26.784Z,5
2017-04-26T05:15:26.463Z,5
2017-04-26T05:16:26.806Z,5
2017-04-26T05:17:26.795Z,5
2017-04-26T05:18:26.817Z,5
2017-04-26T05:19:26.891Z,5
2017-04-26T05:20:26.763Z,10
2017-04-26T05:21:26.772Z,5
2017-04-26T05:22:26.783Z,5
2017-04-26T05:23:26.803Z,5
2017-04-26T05:24:26.821Z,5
2017-04-26T05:25:26.515Z,5
2017-04-26T05:26:26.845Z,5
2017-04-26T05:27:26.639Z,5
2017-04-26T05:28:26.885Z,5
2017-04-26T05:29:26.912Z,5
2017-04-26T05:30:26.911Z,5
2017-04-26T05:31:26.922Z,5
2017-04-26T05:32:27.095Z,5
2017-04-26T05:33:26.669Z,5
2017-04-26T05:34:27.090Z,5
2017-04-26T05:35:27.171Z,10
2017-04-26T05:36:27.251Z,10
2017-04-26T05:37:27.150Z,10
2017-04-26T05:38:27.155Z,10
2017-04-26T05:39:27.243Z,10
2017-04-26T05:40:27.261Z,10
2017-04-26T05:41:27.156Z,10
2017-04-26T05:42:27.282Z,10
2017-04-26T05:43:26.964Z,10
2017-04-26T05:44:27.219Z,10
2017-04-26T05:45:27.280Z,10
2017-04-26T05:46:27.222Z,10
2017-04-26T05:47:27.245Z,10
2017-04-26T05:48:27.274Z,10
2017-04-26T05:49:27.265Z,10
2017-04-26T05:50:27.272Z,10
2017-04-26T05:51:26.974Z,10
2017-04-26T05:52:27.312Z,10
2017-04-26T05:53:26.975Z,10
2017-04-26T05:54:26.984Z,10
2017-04-26T05:55:27.308Z,10
2017-04-26T05:56:27.296Z,10
2017-04-26T05:57:27.313Z,10
2017-04-26T05:58:27.338Z,15
2017-04-26T05:59:27.373Z,15
2017-04-26T06:00:27.444Z,15
2017-04-26T06:01:27.377Z,15
2017-04-26T06:02:27.387Z,15
2017-04-26T06:03:27.428Z,15
2017-04-26T06:04:27.412Z,15
2017-04-26T06:05:27.438Z,15
2017-04-26T06:06:27.483Z,15
2017-04-26T06:07:27.136Z,15
2017-04-26T06:08:27.160Z,15
2017-04-26T06:09:27.270Z,15
2017-04-26T06:10:27.515Z,15
2017-04-26T06:11:27.519Z,15
2017-04-26T06:12:27.555Z,15
2017-04-26T06:13:27.555Z,15
2017-04-26T06:14:27.576Z,15
2017-04-26T06:15:27.586Z,15
2017-04-26T06:16:27.313Z,15
2017-04-26T06:17:27.624Z,15
2017-04-26T06:18:27.631Z,15
2017-04-26T06:19:27.653Z,15
2017-04-26T06:20:27.340Z,15
2017-04-26T06:21:27.675Z,15
2017-04-26T06:22:27.692Z,20
2017-04-26T06:23:27.392Z,20
2017-04-26T06:24:27.731Z,20
2017-04-26T06:25:27.735Z,20
2017-04-26T06:26:27.434Z,20
2017-04-26T06:27:27.453Z,20
2017-04-26T06:28:27.158Z,20
2017-04-26T06:29:27.806Z,15
2017-04-26T06:30:27.816Z,15
2017-04-26T06:31:27.827Z,15
2017-04-26T06:32:27.846Z,15
2017-04-26T06:33:27.863Z,20
2017-04-26T06:34:27.876Z,20
2017-04-26T06:35:27.893Z,20
2017-04-26T06:36:27.906Z,20
2017-04-26T06:37:27.937Z,20
2017-04-26T06:38:27.296Z,20
2017-04-26T06:39:27.976Z,15
2017-04-26T06:40:27.967Z,15
2017-04-26T06:41:27.984Z,15
2017-04-26T06:42:28.015Z,15
2017-04-26T06:43:28.013Z,20
2017-04-26T06:44:27.716Z,20
2017-04-26T06:45:28.038Z,20
2017-04-26T06:46:28.058Z,20
2017-04-26T06:47:28.075Z,20
2017-04-26T06:48:28.107Z,20
2017-04-26T06:49:28.109Z,20
2017-04-26T06:50:28.125Z,20
2017-04-26T06:51:28.146Z,20
2017-04-26T06:52:27.828Z,20
2017-04-26T06:53:28.172Z,20
2017-04-26T06:54:28.184Z,20
2017-04-26T06:55:28.199Z,20
2017-04-26T06:56:27.895Z,20
2017-04-26T06:57:28.226Z,20
2017-04-26T06:58:28.264Z,20
2017-04-26T06:59:27.947Z,25
2017-04-26T07:00:28.277Z,25
2017-04-26T07:01:28.297Z,25
2017-04-26T07:02:27.990Z,25
2017-04-26T07:03:28.332Z,30
2017-04-26T07:04:28.349Z,30
2017-04-26T07:05:28.350Z,25
2017-04-26T07:06:28.369Z,25
2017-04-26T07:07:28.064Z,25
2017-04-26T07:08:28.398Z,25
2017-04-26T07:09:28.416Z,25
2017-04-26T07:10:28.434Z,25
2017-04-26T07:11:28.450Z,25
2017-04-26T07:12:28.465Z,25
2017-04-26T07:13:28.488Z,25
2017-04-26T07:14:28.495Z,25
2017-04-26T07:15:28.632Z,25
2017-04-26T07:16:28.527Z,25
2017-04-26T07:17:28.552Z,25
2017-04-26T07:18:28.563Z,25
2017-04-26T07:19:28.258Z,25
2017-04-26T07:20:28.589Z,25
2017-04-26T07:21:28.604Z,25
2017-04-26T07:22:28.713Z,25
2017-04-26T07:23:28.742Z,20
2017-04-26T07:24:28.654Z,20
2017-04-26T07:25:28.665Z,20
2017-04-26T07:26:28.687Z,20
2017-04-26T07:27:28.707Z,20
2017-04-26T07:28:28.725Z,20
2017-04-26T07:29:28.741Z,20
2017-04-26T07:30:28.749Z,20
2017-04-26T07:31:28.765Z,20
2017-04-26T07:32:28.794Z,25
2017-04-26T07:33:28.792Z,25
2017-04-26T07:34:28.808Z,20
2017-04-26T07:35:28.830Z,20
2017-04-26T07:36:28.853Z,20
2017-04-26T07:37:28.863Z,20
2017-04-26T07:38:28.555Z,20
2017-04-26T07:39:28.257Z,20
2017-04-26T07:40:28.903Z,20
2017-04-26T07:41:28.921Z,20
2017-04-26T07:42:28.938Z,25
2017-04-26T07:43:28.962Z,25
2017-04-26T07:44:28.978Z,25
2017-04-26T07:45:28.992Z,25
2017-04-26T07:46:29.011Z,25
2017-04-26T07:47:29.020Z,25
2017-04-26T07:48:29.045Z,20
2017-04-26T07:49:29.055Z,20
2017-04-26T07:50:29.071Z,20
2017-04-26T07:51:29.088Z,15
2017-04-26T07:52:29.111Z,15
2017-04-26T07:53:29.117Z,15
2017-04-26T07:54:29.134Z,15
2017-04-26T07:55:29.153Z,10
2017-04-26T07:56:29.161Z,10
2017-04-26T07:57:29.181Z,10
2017-04-26T07:58:29.202Z,10
2017-04-26T07:59:29.212Z,10
2017-04-26T08:00:29.234Z,10
2017-04-26T08:01:29.244Z,10
2017-04-26T08:02:29.263Z,10
2017-04-26T08:03:29.278Z,10
2017-04-26T08:04:29.299Z,10
2017-04-26T08:05:29.313Z,10
2017-04-26T08:06:29.011Z,10
2017-04-26T08:07:29.340Z,10
2017-04-26T08:08:29.363Z,10
2017-04-26T08:09:29.382Z,10
2017-04-26T08:10:29.403Z,10
2017-04-26T08:11:29.411Z,10
2017-04-26T08:12:29.454Z,10
2017-04-26T08:13:29.458Z,10
2017-04-26T08:14:28.827Z,10
2017-04-26T08:15:29.499Z,10
2017-04-26T08:16:29.504Z,10
2017-04-26T08:17:29.520Z,10
2017-04-26T08:18:29.213Z,10
2017-04-26T08:19:29.558Z,10
2017-04-26T08:20:29.259Z,10
2017-04-26T08:21:29.575Z,10
2017-04-26T08:22:29.315Z,10
2017-04-26T08:23:29.621Z,15
2017-04-26T08:24:29.634Z,15
2017-04-26T08:25:29.324Z,15
2017-04-26T08:26:29.675Z,20
2017-04-26T08:27:29.368Z,25
2017-04-26T08:28:29.691Z,25
2017-04-26T08:29:29.388Z,25
2017-04-26T08:30:29.405Z,25
2017-04-26T08:31:29.867Z,25
2017-04-26T08:32:29.449Z,20
2017-04-26T08:33:29.551Z,20
2017-04-26T08:34:29.875Z,20
2017-04-26T08:35:29.923Z,15
2017-04-26T08:36:29.607Z,15
2017-04-26T08:37:29.211Z,15
2017-04-26T08:38:29.937Z,15
2017-04-26T08:39:29.954Z,15
2017-04-26T08:40:29.956Z,20
2017-04-26T08:41:29.961Z,25
2017-04-26T08:42:29.964Z,30
2017-04-26T08:43:30.032Z,30
2017-04-26T08:44:30.034Z,35
2017-04-26T08:45:30.051Z,35
2017-04-26T08:46:30.049Z,35
2017-04-26T08:47:30.035Z,35
2017-04-26T08:48:30.163Z,35
2017-04-26T08:49:30.159Z,30
2017-04-26T08:50:30.185Z,30
2017-04-26T08:51:30.174Z,30
2017-04-26T08:52:29.888Z,30
2017-04-26T08:53:29.878Z,35
2017-04-26T08:54:30.337Z,35
2017-04-26T08:55:29.932Z,35
2017-04-26T08:56:30.398Z,35
2017-04-26T08:57:30.403Z,30
2017-04-26T08:58:29.985Z,35
2017-04-26T08:59:30.314Z,35
2017-04-26T09:00:30.328Z,35
2017-04-26T09:01:30.037Z,35
2017-04-26T09:02:30.464Z,35
2017-04-26T09:03:30.477Z,30
2017-04-26T09:04:30.493Z,30
2017-04-26T09:05:30.182Z,30
2017-04-26T09:06:30.510Z,30
2017-04-26T09:07:30.506Z,25
2017-04-26T09:08:30.118Z,25
2017-04-26T09:09:30.487Z,25
2017-04-26T09:10:30.556Z,25
2017-04-26T09:11:30.490Z,25
2017-04-26T09:12:30.526Z,25
2017-04-26T09:13:30.546Z,25
2017-04-26T09:14:30.646Z,30
2017-04-26T09:15:30.646Z,30
2017-04-26T09:16:30.569Z,30
2017-04-26T09:17:30.254Z,30
2017-04-26T09:18:30.572Z,40
2017-04-26T09:19:30.583Z,45
2017-04-26T09:20:30.602Z,50
2017-04-26T09:21:30.290Z,50
2017-04-26T09:22:30.487Z,45
2017-04-26T09:23:30.641Z,40
2017-04-26T09:24:30.659Z,35
2017-04-26T09:25:30.680Z,35
2017-04-26T09:26:30.693Z,35
2017-04-26T09:27:30.395Z,40
2017-04-26T09:28:30.420Z,35
2017-04-26T09:29:30.445Z,35
2017-04-26T09:30:30.777Z,40
2017-04-26T09:31:30.784Z,45
2017-04-26T09:32:30.493Z,40
2017-04-26T09:33:30.827Z,40
2017-04-26T09:34:30.847Z,30
2017-04-26T09:35:30.870Z,25
2017-04-26T09:36:30.882Z,25
2017-04-26T09:37:30.910Z,20
2017-04-26T09:38:30.930Z,20
2017-04-26T09:39:30.970Z,20
2017-04-26T09:40:30.967Z,20
2017-04-26T09:41:30.980Z,20
2017-04-26T09:42:31.008Z,20
2017-04-26T09:43:31.015Z,20
2017-04-26T09:44:30.715Z,15
2017-04-26T09:45:31.060Z,15
2017-04-26T09:46:31.076Z,20
2017-04-26T09:47:30.785Z,20
2017-04-26T09:48:30.812Z,20
2017-04-26T09:49:30.818Z,20
2017-04-26T09:50:31.146Z,20
2017-04-26T09:51:31.172Z,20
2017-04-26T09:52:31.188Z,20
2017-04-26T09:53:31.209Z,20
2017-04-26T09:54:30.906Z,25
2017-04-26T09:55:30.923Z,25
2017-04-26T09:56:31.269Z,30
2017-04-26T09:57:31.290Z,30
2017-04-26T09:58:31.310Z,35
2017-04-26T09:59:31.318Z,40
2017-04-26T10:00:31.346Z,40
2017-04-26T10:01:31.360Z,45
2017-04-26T10:02:31.383Z,50
2017-04-26T10:03:31.400Z,55
2017-04-26T10:04:31.429Z,55
2017-04-26T10:05:31.448Z,55
2017-04-26T10:06:31.478Z,60
2017-04-26T10:07:31.484Z,65
2017-04-26T10:08:31.184Z,60
2017-04-26T10:09:31.527Z,55
2017-04-26T10:10:31.539Z,50
2017-04-26T10:11:31.558Z,45
2017-04-26T10:12:31.262Z,45
2017-04-26T10:13:31.606Z,45
2017-04-26T10:15:10.696Z,30
2017-04-26T10:15:31.654Z,30
2017-04-26T10:16:31.669Z,25
2017-04-26T10:17:31.692Z,20
2017-04-26T10:18:31.701Z,15
2017-04-26T10:19:31.714Z,15
2017-04-26T10:20:31.758Z,15
2017-04-26T10:21:31.768Z,15
2017-04-26T10:22:31.784Z,15
2017-04-26T10:23:31.803Z,15
2017-04-26T10:24:31.833Z,15
2017-04-26T10:25:31.847Z,15
2017-04-26T10:26:31.875Z,15
2017-04-26T10:27:31.881Z,15
2017-04-26T10:28:50.762Z,15
2017-04-26T10:29:31.916Z,15
2017-04-26T10:31:03.225Z,20
2017-04-26T10:31:31.967Z,20
2017-04-26T10:32:31.982Z,20
2017-04-26T10:33:32.002Z,25
2017-04-26T10:34:31.756Z,25
2017-04-26T10:35:32.054Z,25
2017-04-26T10:36:32.081Z,25
2017-04-26T10:37:32.082Z,25
2017-04-26T10:38:32.109Z,25
2017-04-26T10:39:32.122Z,25
2017-04-26T10:40:32.259Z,20
2017-04-26T10:41:32.481Z,25
2017-04-26T10:42:35.025Z,20
2017-04-26T10:43:32.208Z,25
2017-04-26T10:44:32.346Z,25
2017-04-26T10:45:32.356Z,25
2017-04-26T10:46:32.366Z,30
2017-04-26T10:47:32.405Z,30
2017-04-26T10:48:32.426Z,35
2017-04-26T10:49:32.090Z,35
2017-04-26T10:50:32.352Z,40
2017-04-26T10:51:32.495Z,40
2017-04-26T10:52:32.512Z,40
2017-04-26T10:53:32.501Z,45
2017-04-26T10:54:32.522Z,45
2017-04-26T10:55:32.768Z,50
2017-04-26T10:56:32.809Z,50
2017-04-26T10:57:32.818Z,50
2017-04-26T10:58:32.817Z,50
2017-04-26T10:59:32.825Z,50
2017-04-26T11:00:32.835Z,55
2017-04-26T11:01:32.872Z,55
2017-04-26T11:02:32.882Z,55
2017-04-26T11:03:32.882Z,50
2017-04-26T11:04:32.887Z,50
2017-04-26T11:05:32.947Z,45
2017-04-26T11:06:32.532Z,35
2017-04-26T11:07:32.637Z,30
2017-04-26T11:08:32.493Z,30
2017-04-26T11:09:32.181Z,25
2017-04-26T11:10:32.870Z,20
2017-04-26T11:11:32.538Z,20
2017-04-26T11:12:32.546Z,20
2017-04-26T11:13:32.557Z,20
2017-04-26T11:14:32.898Z,20
2017-04-26T11:15:32.906Z,20
2017-04-26T11:16:32.953Z,25
2017-04-26T11:17:32.953Z,25
2017-04-26T11:18:32.662Z,25
2017-04-26T11:19:33.040Z,25
2017-04-26T11:20:33.039Z,20
2017-04-26T11:21:32.779Z,20
2017-04-26T11:22:33.057Z,25
2017-04-26T11:23:32.817Z,25
2017-04-26T11:24:33.063Z,25
2017-04-26T11:25:33.072Z,30
2017-04-26T11:26:33.092Z,30
2017-04-26T11:27:33.113Z,30
2017-04-26T11:28:33.135Z,35
2017-04-26T11:29:32.880Z,35
2017-04-26T11:30:33.175Z,35
2017-04-26T11:31:32.936Z,35
2017-04-26T11:32:32.935Z,35
2017-04-26T11:33:33.235Z,35
2017-04-26T11:34:32.953Z,40
2017-04-26T11:35:32.962Z,40
2017-04-26T11:36:33.301Z,45
2017-04-26T11:37:33.323Z,45
2017-04-26T11:38:33.340Z,45
2017-04-26T11:39:33.366Z,45
2017-04-26T11:40:33.382Z,45
2017-04-26T11:41:33.398Z,45
2017-04-26T11:42:33.107Z,50
2017-04-26T11:43:33.445Z,50
2017-04-26T11:44:33.464Z,50
2017-04-26T11:45:33.487Z,45
2017-04-26T11:46:33.505Z,45
2017-04-26T11:47:33.533Z,40
2017-04-26T11:48:33.539Z,40
2017-04-26T11:49:33.567Z,35
2017-04-26T11:50:33.588Z,35
2017-04-26T11:51:33.615Z,40
2017-04-26T11:52:33.632Z,40
2017-04-26T11:53:33.648Z,45
2017-04-26T11:54:33.362Z,50
2017-04-26T11:55:33.698Z,60
2017-04-26T11:56:33.408Z,60
2017-04-26T11:57:33.740Z,60
2017-04-26T11:58:33.755Z,65
2017-04-26T11:59:33.777Z,65
2017-04-26T12:00:33.799Z,65
2017-04-26T12:01:33.810Z,70
2017-04-26T12:02:33.836Z,65
2017-04-26T12:03:33.869Z,65
2017-04-26T12:04:33.873Z,65
2017-04-26T12:05:33.897Z,60
2017-04-26T12:06:33.921Z,50
2017-04-26T12:07:33.624Z,50
2017-04-26T12:08:33.636Z,60
2017-04-26T12:09:33.663Z,55
2017-04-26T12:10:34.005Z,45
2017-04-26T12:11:33.704Z,50
2017-04-26T12:12:33.727Z,50
2017-04-26T12:13:33.763Z,50
2017-04-26T12:14:34.080Z,45
2017-04-26T12:15:34.106Z,35
2017-04-26T12:16:34.128Z,35
2017-04-26T12:17:34.162Z,30
2017-04-26T12:18:34.173Z,30
2017-04-26T12:19:33.869Z,25
2017-04-26T12:20:33.893Z,25
2017-04-26T12:21:33.921Z,20
2017-04-26T12:22:34.255Z,20
2017-04-26T12:23:34.266Z,20
2017-04-26T12:24:33.984Z,20
2017-04-26T12:25:34.317Z,20
2017-04-26T12:26:34.018Z,20
2017-04-26T12:27:34.047Z,20
2017-04-26T12:28:34.073Z,20
2017-04-26T12:29:34.402Z,20
2017-04-26T12:30:34.416Z,20
2017-04-26T12:31:34.453Z,20
2017-04-26T12:32:34.496Z,20
2017-04-26T12:33:34.489Z,20
2017-04-26T12:34:34.502Z,20
2017-04-26T12:35:34.213Z,20
2017-04-26T12:36:34.648Z,20
2017-04-26T12:37:34.657Z,20
2017-04-26T12:38:34.695Z,20
2017-04-26T12:39:34.304Z,20
2017-04-26T12:40:34.705Z,25
2017-04-26T12:41:34.712Z,25
2017-04-26T12:42:34.359Z,25
2017-04-26T12:43:34.380Z,30
2017-04-26T12:44:34.741Z,35
2017-04-26T12:45:34.424Z,40
2017-04-26T12:46:34.438Z,45
2017-04-26T12:47:34.815Z,50
2017-04-26T12:48:34.803Z,55
2017-04-26T12:49:34.505Z,60
2017-04-26T12:50:34.214Z,70
2017-04-26T12:51:34.548Z,80
2017-04-26T12:52:34.829Z,85
2017-04-26T12:53:34.997Z,80
2017-04-26T12:54:34.296Z,80
2017-04-26T12:55:35.101Z,75
2017-04-26T12:56:34.661Z,70
2017-04-26T12:57:35.107Z,70
2017-04-26T12:58:34.822Z,65
2017-04-26T12:59:35.146Z,65
2017-04-26T13:00:35.156Z,65
2017-04-26T13:01:34.848Z,75
2017-04-26T13:02:35.313Z,75
2017-04-26T13:03:35.294Z,70
2017-04-26T13:04:34.925Z,60
2017-04-26T13:05:35.308Z,60
2017-04-26T13:06:35.259Z,60
2017-04-26T13:07:35.315Z,55
2017-04-26T13:08:35.320Z,50
2017-04-26T13:09:35.329Z,50
2017-04-26T13:10:35.357Z,55
2017-04-26T13:11:35.394Z,55
2017-04-26T13:12:35.373Z,55
2017-04-26T13:13:35.342Z,55
2017-04-26T13:14:35.353Z,55
2017-04-26T13:15:35.384Z,55
2017-04-26T13:16:35.266Z,50
2017-04-26T13:17:35.419Z,55
2017-04-26T13:18:35.287Z,55
2017-04-26T13:19:35.467Z,55
2017-04-26T13:20:35.172Z,45
2017-04-26T13:21:35.509Z,45
2017-04-26T13:22:35.534Z,50
2017-04-26T13:23:35.555Z,45
2017-04-26T13:24:35.583Z,45
2017-04-26T13:25:35.620Z,40
2017-04-26T13:26:35.622Z,40
2017-04-26T13:27:35.650Z,40
2017-04-26T13:28:35.756Z,40
2017-04-26T13:29:35.691Z,40
2017-04-26T13:30:35.718Z,40
2017-04-26T13:31:35.747Z,40
2017-04-26T13:32:35.758Z,40
2017-04-26T13:33:35.783Z,40
2017-04-26T13:34:35.485Z,40
2017-04-26T13:35:35.502Z,40
2017-04-26T13:36:35.843Z,40
2017-04-26T13:37:35.557Z,35
2017-04-26T13:38:35.887Z,35
2017-04-26T13:39:35.591Z,35
2017-04-26T13:40:36.152Z,40
2017-04-26T13:41:35.958Z,40
2017-04-26T13:42:35.979Z,40
2017-04-26T13:43:35.683Z,40
2017-04-26T13:44:35.702Z,45
2017-04-26T13:45:35.725Z,45
2017-04-26T13:46:36.062Z,45
2017-04-26T13:47:36.087Z,50
2017-04-26T13:48:36.113Z,50
2017-04-26T13:49:36.138Z,55
2017-04-26T13:50:36.161Z,55
2017-04-26T13:51:36.187Z,50
2017-04-26T13:52:35.878Z,50
2017-04-26T13:53:35.903Z,50
2017-04-26T13:54:36.243Z,50
2017-04-26T13:55:36.264Z,45
2017-04-26T13:56:36.286Z,45
2017-04-26T13:57:35.665Z,45
2017-04-26T13:58:36.334Z,45
2017-04-26T13:59:36.352Z,55
2017-04-26T14:00:36.379Z,60
2017-04-26T14:01:36.401Z,65
2017-04-26T14:02:36.418Z,55
2017-04-26T14:03:36.443Z,65
2017-04-26T14:04:36.467Z,65
2017-04-26T14:05:36.168Z,45
2017-04-26T14:06:36.182Z,40
2017-04-26T14:07:36.532Z,40
2017-04-26T14:08:36.551Z,40
2017-04-26T14:09:36.566Z,40
2017-04-26T14:10:36.591Z,40
2017-04-26T14:11:36.613Z,45
2017-04-26T14:12:36.640Z,40
2017-04-26T14:13:36.666Z,45
2017-04-26T14:14:36.690Z,55
2017-04-26T14:15:36.700Z,40
2017-04-26T14:16:36.733Z,30
2017-04-26T14:17:36.751Z,25
2017-04-26T14:18:36.781Z,25
2017-04-26T14:19:36.799Z,25
2017-04-26T14:20:36.496Z,25
2017-04-26T14:21:36.840Z,25
2017-04-26T14:22:36.868Z,20
2017-04-26T14:23:36.884Z,20
2017-04-26T14:24:36.917Z,15
2017-04-26T14:25:36.940Z,15
2017-04-26T14:26:36.959Z,15
2017-04-26T14:27:36.987Z,15